createdAt,value
2018-03-02T00:02:21.376Z,57.07
2018-03-02T00:04:49.029Z,57.10
2018-03-02T00:07:16.623Z,56.94
2018-03-02T00:09:45.178Z,57.20
2018-03-02T00:12:16.066Z,57.14
2018-03-02T00:14:43.647Z,57.13
2018-03-02T00:17:11.349Z,57.30
2018-03-02T00:19:38.925Z,57.51
2018-03-02T00:22:06.494Z,57.44
2018-03-02T00:24:34.123Z,57.45
2018-03-02T00:27:01.716Z,57.44
2018-03-02T00:29:29.297Z,57.30
2018-03-02T00:32:01.812Z,57.17
2018-03-02T00:34:29.625Z,57.33
2018-03-02T00:36:57.275Z,57.56
2018-03-02T00:39:24.894Z,57.83
2018-03-02T00:41:52.478Z,57.83
2018-03-02T00:44:20.070Z,57.82
2018-03-02T00:46:47.671Z,58.09
2018-03-02T00:49:15.385Z,58.17
2018-03-02T00:51:42.982Z,58.17
2018-03-02T00:54:10.805Z,58.29
2018-03-02T00:56:38.418Z,58.08
2018-03-02T00:59:06.021Z,58.28
2018-03-02T01:01:33.636Z,58.48
2018-03-02T01:04:01.272Z,58.62
2018-03-02T01:06:28.898Z,58.61
2018-03-02T01:08:56.509Z,58.90
2018-03-02T01:11:24.210Z,58.65
2018-03-02T01:13:51.780Z,58.43
2018-03-02T01:16:19.444Z,58.63
2018-03-02T01:18:47.079Z,58.72
2018-03-02T01:21:14.649Z,58.76
2018-03-02T01:23:42.716Z,58.70
2018-03-02T01:26:10.412Z,58.70
2018-03-02T01:28:38.007Z,58.77
2018-03-02T01:31:05.703Z,58.80
2018-03-02T01:33:33.428Z,58.70
2018-03-02T01:36:01.387Z,58.89
2018-03-02T01:38:29.071Z,59.03
2018-03-02T01:40:57.330Z,58.92
2018-03-02T01:43:25.044Z,59.00
2018-03-02T01:45:52.762Z,59.19
2018-03-02T01:48:20.414Z,59.07
2018-03-02T01:50:48.006Z,59.21
2018-03-02T01:53:15.569Z,59.19
2018-03-02T01:55:43.506Z,59.29
2018-03-02T01:58:11.073Z,59.35
2018-03-02T02:00:38.645Z,59.33
2018-03-02T02:03:06.270Z,59.52
2018-03-02T02:05:34.295Z,59.57
2018-03-02T02:08:02.324Z,59.47
2018-03-02T02:10:29.937Z,59.47
2018-03-02T02:12:57.524Z,59.51
2018-03-02T02:15:25.103Z,59.51
2018-03-02T02:17:53.028Z,59.66
2018-03-02T02:20:20.728Z,59.79
2018-03-02T02:22:48.341Z,59.65
2018-03-02T02:25:15.928Z,59.47
2018-03-02T02:27:43.563Z,59.84
2018-03-02T02:30:11.365Z,59.75
2018-03-02T02:32:38.967Z,59.78
2018-03-02T02:35:06.918Z,59.92
2018-03-02T02:37:34.561Z,59.79
2018-03-02T02:40:02.387Z,59.81
2018-03-02T02:42:30.063Z,60.07
2018-03-02T02:44:57.663Z,60.28
2018-03-02T02:47:25.239Z,59.88
2018-03-02T02:49:52.941Z,60.05
2018-03-02T02:52:20.498Z,59.83
2018-03-02T02:54:48.046Z,60.12
2018-03-02T02:57:15.749Z,60.36
2018-03-02T02:59:43.384Z,59.92
2018-03-02T03:02:10.983Z,60.13
2018-03-02T03:04:38.620Z,59.88
2018-03-02T03:07:06.215Z,59.88
2018-03-02T03:09:33.812Z,60.07
2018-03-02T03:12:01.508Z,60.12
2018-03-02T03:14:29.106Z,60.10
2018-03-02T03:16:56.676Z,60.31
2018-03-02T03:19:24.301Z,60.52
2018-03-02T03:21:51.906Z,60.33
2018-03-02T03:24:19.488Z,60.58
2018-03-02T03:26:47.111Z,60.39
2018-03-02T03:29:14.812Z,60.69
2018-03-02T03:31:42.383Z,60.66
2018-03-02T03:34:10.008Z,60.73
2018-03-02T03:36:37.585Z,60.53
2018-03-02T03:39:05.255Z,60.43
2018-03-02T03:41:32.883Z,60.43
2018-03-02T03:44:00.446Z,60.58
2018-03-02T03:46:28.061Z,60.60
2018-03-02T03:48:55.634Z,60.52
2018-03-02T03:51:23.296Z,60.74
2018-03-02T03:53:50.918Z,60.90
2018-03-02T03:56:18.738Z,60.87
2018-03-02T03:58:46.325Z,61.03
2018-03-02T04:01:14.175Z,61.00
2018-03-02T04:03:41.766Z,60.90
2018-03-02T04:06:09.395Z,60.63
2018-03-02T04:08:36.984Z,61.03
2018-03-02T04:11:04.573Z,60.88
2018-03-02T04:13:32.209Z,60.99
2018-03-02T04:15:59.796Z,61.21
2018-03-02T04:18:27.663Z,61.44
2018-03-02T04:20:55.276Z,61.48
2018-03-02T04:23:22.953Z,61.54
2018-03-02T04:25:50.563Z,61.36
2018-03-02T04:28:18.184Z,61.46
2018-03-02T04:30:45.824Z,61.49
2018-03-02T04:33:13.418Z,61.54
2018-03-02T04:35:41.000Z,61.78
2018-03-02T04:38:08.658Z,61.84
2018-03-02T04:40:36.265Z,61.81
2018-03-02T04:43:04.088Z,61.91
2018-03-02T04:45:31.693Z,62.27
2018-03-02T04:47:59.552Z,61.94
2018-03-02T04:50:27.176Z,62.11
2018-03-02T04:52:54.860Z,62.08
2018-03-02T04:55:22.617Z,62.29
2018-03-02T04:57:50.190Z,62.30
2018-03-02T05:00:17.751Z,62.50
2018-03-02T05:02:45.376Z,62.54
2018-03-02T05:05:13.118Z,62.67
2018-03-02T05:07:40.719Z,62.82
2018-03-02T05:10:08.338Z,62.67
2018-03-02T05:12:35.920Z,62.80
2018-03-02T05:15:03.509Z,62.85
2018-03-02T05:17:31.104Z,63.01
2018-03-02T05:19:58.741Z,63.33
2018-03-02T05:22:26.311Z,63.13
2018-03-02T05:24:54.249Z,63.16
2018-03-02T05:27:23.019Z,63.53
2018-03-02T05:29:50.593Z,63.42
2018-03-02T05:32:18.188Z,63.24
2018-03-02T05:34:45.982Z,63.46
2018-03-02T05:37:13.619Z,63.67
2018-03-02T05:39:41.187Z,63.73
2018-03-02T05:42:08.820Z,63.74
2018-03-02T05:44:36.454Z,64.00
2018-03-02T05:47:04.052Z,63.93
2018-03-02T05:49:31.620Z,63.95
2018-03-02T05:51:59.507Z,64.10
2018-03-02T05:54:27.118Z,63.92
2018-03-02T05:56:54.681Z,63.94
2018-03-02T05:59:22.303Z,63.75
2018-03-02T06:01:50.121Z,64.13
2018-03-02T06:04:17.697Z,64.25
2018-03-02T06:06:45.329Z,64.08
2018-03-02T06:09:12.967Z,63.96
2018-03-02T06:11:40.563Z,64.06
2018-03-02T06:14:08.186Z,64.05
2018-03-02T06:16:35.774Z,64.20
2018-03-02T06:19:04.250Z,63.89
2018-03-02T06:21:31.965Z,63.93
2018-03-02T06:23:59.625Z,64.15
2018-03-02T06:26:27.238Z,64.17
2018-03-02T06:28:54.831Z,64.17
2018-03-02T06:31:22.659Z,64.18
2018-03-02T06:33:50.251Z,64.14
2018-03-02T06:36:17.843Z,64.04
2018-03-02T06:38:45.436Z,63.74
2018-03-02T06:41:13.082Z,64.04
2018-03-02T06:43:40.680Z,63.77
2018-03-02T06:46:08.245Z,63.74
2018-03-02T06:48:35.867Z,63.90
2018-03-02T06:51:03.443Z,63.70
2018-03-02T06:53:31.004Z,63.45
2018-03-02T06:55:58.878Z,63.75
2018-03-02T06:58:26.506Z,63.75
2018-03-02T07:00:54.159Z,63.50
2018-03-02T07:03:21.777Z,63.35
2018-03-02T07:05:49.344Z,63.37
2018-03-02T07:08:17.056Z,63.11
2018-03-02T07:10:44.710Z,63.33
2018-03-02T07:13:12.272Z,63.19
2018-03-02T07:15:39.860Z,63.12
2018-03-02T07:18:07.516Z,63.02
2018-03-02T07:20:35.078Z,62.96
2018-03-02T07:23:02.970Z,62.74
2018-03-02T07:25:30.597Z,62.43
2018-03-02T07:27:58.167Z,62.22
2018-03-02T07:30:25.753Z,62.15
2018-03-02T07:32:53.363Z,62.04
2018-03-02T07:35:20.943Z,61.93
2018-03-02T07:37:48.540Z,61.69
2018-03-02T07:40:16.190Z,61.68
2018-03-02T07:42:43.767Z,61.39
2018-03-02T07:45:11.317Z,61.25
2018-03-02T07:47:38.901Z,61.21
2018-03-02T07:50:06.485Z,60.97
2018-03-02T07:52:34.154Z,60.98
2018-03-02T07:55:01.847Z,61.02
2018-03-02T07:57:29.706Z,61.05
2018-03-02T07:59:57.517Z,61.18
2018-03-02T08:02:25.126Z,60.61
2018-03-02T08:04:52.717Z,60.46
2018-03-02T08:07:20.309Z,60.30
2018-03-02T08:09:48.009Z,60.11
2018-03-02T08:12:15.619Z,59.89
2018-03-02T08:14:43.218Z,59.51
2018-03-02T08:17:10.910Z,59.63
2018-03-02T08:19:38.470Z,59.61
2018-03-02T08:22:06.042Z,59.06
2018-03-02T08:24:33.671Z,59.03
2018-03-02T08:27:01.503Z,59.02
2018-03-02T08:29:29.145Z,58.88
2018-03-02T08:31:56.847Z,58.91
2018-03-02T08:34:24.662Z,58.91
2018-03-02T08:36:52.259Z,58.63
2018-03-02T08:39:19.860Z,58.31
2018-03-02T08:41:47.424Z,57.70
2018-03-02T08:44:15.050Z,57.72
2018-03-02T08:46:42.661Z,57.59
2018-03-02T08:49:10.271Z,57.70
2018-03-02T08:51:37.863Z,56.96
2018-03-02T08:54:05.557Z,56.68
2018-03-02T08:56:33.164Z,56.48
2018-03-02T08:59:00.732Z,56.43
2018-03-02T09:01:28.363Z,56.41
2018-03-02T09:03:55.924Z,56.14
2018-03-02T09:06:23.493Z,55.85
2018-03-02T09:08:51.133Z,56.03
2018-03-02T09:11:18.714Z,55.62
2018-03-02T09:13:46.284Z,55.57
2018-03-02T09:16:13.956Z,54.97
2018-03-02T09:18:41.566Z,54.74
2018-03-02T09:21:09.202Z,54.96
2018-03-02T09:23:36.832Z,55.21
2018-03-02T09:26:04.447Z,54.50
2018-03-02T09:28:32.046Z,54.97
2018-03-02T09:31:00.779Z,54.33
2018-03-02T09:33:28.442Z,53.89
2018-03-02T09:35:56.035Z,53.44
2018-03-02T09:38:23.688Z,53.89
2018-03-02T09:40:51.417Z,53.82
2018-03-02T09:43:21.157Z,53.66
2018-03-02T09:45:49.015Z,53.14
2018-03-02T09:48:16.626Z,53.01
2018-03-02T09:50:44.661Z,52.97
2018-03-02T09:53:12.246Z,52.04
2018-03-02T09:55:39.896Z,52.36
2018-03-02T09:58:07.454Z,52.90
2018-03-02T10:00:35.032Z,51.94
2018-03-02T10:03:02.962Z,51.37
2018-03-02T10:05:30.529Z,50.97
2018-03-02T10:07:58.087Z,51.40
2018-03-02T10:10:25.720Z,51.22
2018-03-02T10:12:53.530Z,51.63
2018-03-02T10:15:21.183Z,51.18
2018-03-02T10:17:48.777Z,51.14
2018-03-02T10:20:16.372Z,50.13
2018-03-02T10:22:44.357Z,50.41
2018-03-02T10:25:11.993Z,50.34
2018-03-02T10:27:39.650Z,50.43
2018-03-02T10:30:07.271Z,48.92
2018-03-02T10:32:34.852Z,49.18
2018-03-02T10:35:02.677Z,48.56
2018-03-02T10:37:30.284Z,48.53
2018-03-02T10:39:57.882Z,47.94
2018-03-02T10:42:25.532Z,48.06
2018-03-02T10:44:53.119Z,47.73
2018-03-02T10:47:20.988Z,46.85
2018-03-02T10:49:48.684Z,46.87
2018-03-02T10:52:16.298Z,46.84
2018-03-02T10:54:43.922Z,46.29
2018-03-02T10:57:11.566Z,46.18
2018-03-02T10:59:39.440Z,45.47
2018-03-02T11:02:07.198Z,45.56
2018-03-02T11:04:36.684Z,45.70
2018-03-02T11:07:04.269Z,44.98
2018-03-02T11:09:32.171Z,44.31
2018-03-02T11:11:59.759Z,44.61
2018-03-02T11:14:27.368Z,43.69
2018-03-02T11:16:55.029Z,44.03
2018-03-02T11:19:22.679Z,43.37
2018-03-02T11:21:50.413Z,42.23
2018-03-02T11:24:18.057Z,42.16
2018-03-02T11:26:45.620Z,42.45
2018-03-02T11:29:13.198Z,41.88
2018-03-02T11:31:41.099Z,41.83
2018-03-02T11:34:08.681Z,41.93
2018-03-02T11:36:36.344Z,42.46
2018-03-02T11:39:03.999Z,41.97
2018-03-02T11:41:31.635Z,41.83
2018-03-02T11:43:59.347Z,41.94
2018-03-02T11:46:26.945Z,40.71
2018-03-02T11:48:54.572Z,40.98
2018-03-02T11:51:22.254Z,41.37
2018-03-02T11:53:49.920Z,41.00
2018-03-02T11:56:17.547Z,40.36
2018-03-02T11:58:45.362Z,40.71
2018-03-02T12:01:12.971Z,41.10
2018-03-02T12:03:40.686Z,40.64
2018-03-02T12:06:08.335Z,40.48
2018-03-02T12:08:35.925Z,39.37
2018-03-02T12:11:03.632Z,39.78
2018-03-02T12:13:31.227Z,39.90
2018-03-02T12:15:58.820Z,39.66
2018-03-02T12:18:26.493Z,39.93
2018-03-02T12:20:54.080Z,38.92
2018-03-02T12:23:21.910Z,38.41
2018-03-02T12:25:49.555Z,38.70
2018-03-02T12:28:17.163Z,38.78
2018-03-02T12:30:45.155Z,38.27
2018-03-02T12:33:12.821Z,38.04
2018-03-02T12:35:40.491Z,37.67
2018-03-02T12:38:08.069Z,38.21
2018-03-02T12:40:35.742Z,38.17
2018-03-02T12:43:03.428Z,37.74
2018-03-02T12:45:31.332Z,37.98
2018-03-02T12:47:58.989Z,37.79
2018-03-02T12:50:26.635Z,38.22
2018-03-02T12:52:54.225Z,37.63
2018-03-02T12:55:21.783Z,37.43
2018-03-02T12:57:49.445Z,37.20
2018-03-02T13:00:17.307Z,37.10
2018-03-02T13:02:44.931Z,37.45
2018-03-02T13:05:12.580Z,37.22
2018-03-02T13:07:40.200Z,37.70
2018-03-02T13:10:07.796Z,37.60
2018-03-02T13:12:35.724Z,37.31
2018-03-02T13:15:03.587Z,36.78
2018-03-02T13:17:31.239Z,36.03
2018-03-02T13:19:58.877Z,35.67
2018-03-02T13:22:38.303Z,35.44
2018-03-02T13:25:06.017Z,35.24
2018-03-02T13:27:45.341Z,36.21
2018-03-02T13:30:13.371Z,35.33
2018-03-02T13:32:41.002Z,35.40
2018-03-02T13:35:11.492Z,36.04
2018-03-02T13:37:39.122Z,35.58
2018-03-02T13:40:18.438Z,35.61
2018-03-02T13:42:46.093Z,35.88
2018-03-02T13:45:13.691Z,35.56
2018-03-02T13:50:58.175Z,35.22
2018-03-02T13:53:25.870Z,35.24
2018-03-02T13:55:57.178Z,35.50
2018-03-02T13:58:26.750Z,35.58
2018-03-02T14:00:54.359Z,35.46
2018-03-02T14:03:33.810Z,35.76
2018-03-02T14:06:01.380Z,35.49
2018-03-02T14:08:29.000Z,35.55
2018-03-02T14:10:56.782Z,36.34
2018-03-02T14:13:24.389Z,35.83
2018-03-02T14:15:52.011Z,35.39
2018-03-02T14:18:19.683Z,35.34
2018-03-02T14:20:47.578Z,35.08
2018-03-02T14:23:15.203Z,35.13
2018-03-02T14:25:42.945Z,35.30
2018-03-02T14:28:10.610Z,35.34
2018-03-02T14:30:38.240Z,35.57
2018-03-02T14:33:05.885Z,35.45
2018-03-02T14:35:33.495Z,35.73
2018-03-02T14:38:01.203Z,35.48
2018-03-02T14:40:28.822Z,34.38
2018-03-02T14:42:56.407Z,34.05
2018-03-02T14:45:24.260Z,34.35
2018-03-02T14:47:51.830Z,34.64
2018-03-02T14:50:19.483Z,33.96
2018-03-02T14:52:47.052Z,34.46
2018-03-02T14:55:14.662Z,34.50
2018-03-02T14:57:42.285Z,34.51
2018-03-02T15:00:09.858Z,34.81
2018-03-02T15:02:37.429Z,35.39
2018-03-02T15:05:05.053Z,35.96
2018-03-02T15:07:32.666Z,36.21
2018-03-02T15:10:00.241Z,36.09
2018-03-02T15:12:27.999Z,36.44
2018-03-02T15:14:55.549Z,36.19
2018-03-02T15:17:23.127Z,36.09
2018-03-02T15:19:50.768Z,36.24
2018-03-02T15:22:18.355Z,36.73
2018-03-02T15:24:45.989Z,37.21
2018-03-02T15:27:13.575Z,36.76
2018-03-02T15:29:41.168Z,37.02
2018-03-02T15:32:08.816Z,37.11
2018-03-02T15:34:36.480Z,37.66
2018-03-02T15:37:04.079Z,37.81
2018-03-02T15:39:31.688Z,38.12
2018-03-02T15:41:59.299Z,38.34
2018-03-02T15:44:26.878Z,38.30
2018-03-02T15:46:54.826Z,37.96
2018-03-02T15:49:22.466Z,38.19
2018-03-02T15:51:50.094Z,38.68
2018-03-02T15:54:17.665Z,38.73
2018-03-02T15:56:45.221Z,38.81
2018-03-02T15:59:12.824Z,39.29
2018-03-02T16:01:40.384Z,38.92
2018-03-02T16:04:07.978Z,38.92
2018-03-02T16:06:35.578Z,39.07
2018-03-02T16:09:03.456Z,38.85
2018-03-02T16:11:31.346Z,39.04
2018-03-02T16:13:58.932Z,39.14
2018-03-02T16:16:26.538Z,39.43
2018-03-02T16:18:54.221Z,39.57
2018-03-02T16:21:21.813Z,39.72
2018-03-02T16:23:49.459Z,39.97
2018-03-02T16:26:17.042Z,39.75
2018-03-02T16:28:44.625Z,40.02
2018-03-02T16:31:12.256Z,40.00
2018-03-02T16:33:39.832Z,40.02
2018-03-02T16:36:07.427Z,40.19
2018-03-02T16:38:35.053Z,40.29
2018-03-02T16:41:02.633Z,40.67
2018-03-02T16:43:30.287Z,40.72
2018-03-02T16:45:58.116Z,40.86
2018-03-02T16:48:25.756Z,40.88
2018-03-02T16:50:53.490Z,40.54
2018-03-02T16:53:21.095Z,40.80
2018-03-02T16:55:48.689Z,41.07
2018-03-02T16:58:16.260Z,41.33
2018-03-02T17:00:43.875Z,41.53
2018-03-02T17:03:11.759Z,41.32
2018-03-02T17:05:39.632Z,41.45
2018-03-02T17:08:07.290Z,41.67
2018-03-02T17:10:34.887Z,41.87
2018-03-02T17:13:02.471Z,42.14
2018-03-02T17:15:30.131Z,42.46
2018-03-02T17:17:57.790Z,42.90
2018-03-02T17:20:25.353Z,43.45
2018-03-02T17:22:52.923Z,43.82
2018-03-02T17:25:20.540Z,44.28
2018-03-02T17:27:48.351Z,44.25
2018-03-02T17:30:15.987Z,44.31
2018-03-02T17:32:43.614Z,44.49
2018-03-02T17:35:11.178Z,44.51
2018-03-02T17:37:38.811Z,44.75
2018-03-02T17:40:06.449Z,45.06
2018-03-02T17:42:34.028Z,44.84
2018-03-02T17:45:01.656Z,44.85
2018-03-02T17:47:29.225Z,44.99
2018-03-02T17:49:56.801Z,45.23
2018-03-02T17:52:24.462Z,45.50
2018-03-02T17:54:52.147Z,46.02
2018-03-02T17:57:19.720Z,46.07
2018-03-02T17:59:47.273Z,46.40
2018-03-02T18:02:15.097Z,46.65
2018-03-02T18:04:42.981Z,46.90
2018-03-02T18:07:10.598Z,47.31
2018-03-02T18:09:38.235Z,47.05
2018-03-02T18:12:05.822Z,47.30
2018-03-02T18:14:33.420Z,47.30
2018-03-02T18:17:01.402Z,47.36
2018-03-02T18:19:29.072Z,47.30
2018-03-02T18:21:56.653Z,47.26
2018-03-02T18:24:24.286Z,47.58
2018-03-02T18:26:51.860Z,47.54
2018-03-02T18:29:20.258Z,47.58
2018-03-02T18:31:48.198Z,47.68
2018-03-02T18:34:15.801Z,47.88
2018-03-02T18:36:43.355Z,47.80
2018-03-02T18:39:10.945Z,47.83
2018-03-02T18:41:38.550Z,47.95
2018-03-02T18:44:06.183Z,47.80
2018-03-02T18:46:33.766Z,47.43
2018-03-02T18:49:01.372Z,47.74
2018-03-02T18:51:28.992Z,47.60
2018-03-02T18:53:56.598Z,47.62
2018-03-02T18:56:24.183Z,47.82
2018-03-02T18:58:51.813Z,47.87
2018-03-02T19:01:19.384Z,47.78
2018-03-02T19:03:47.304Z,48.08
2018-03-02T19:06:14.940Z,48.01
2018-03-02T19:08:42.588Z,48.16
2018-03-02T19:11:10.170Z,48.01
2018-03-02T19:13:37.906Z,48.15
2018-03-02T19:16:05.515Z,48.22
2018-03-02T19:18:33.124Z,48.34
2018-03-02T19:21:01.015Z,48.39
2018-03-02T19:23:28.610Z,48.68
2018-03-02T19:25:56.211Z,48.79
2018-03-02T19:28:23.911Z,48.46
2018-03-02T19:30:51.607Z,48.82
2018-03-02T19:33:19.270Z,49.01
2018-03-02T19:35:47.005Z,48.84
2018-03-02T19:38:14.698Z,49.08
2018-03-02T19:40:42.466Z,49.27
2018-03-02T19:43:10.250Z,49.46
2018-03-02T19:45:38.186Z,49.28
2018-03-02T19:48:06.161Z,49.59
2018-03-02T19:50:33.882Z,49.70
2018-03-02T19:53:01.578Z,49.82
2018-03-02T19:55:29.652Z,49.86
2018-03-02T19:57:57.387Z,49.91
2018-03-02T20:00:25.098Z,50.20
2018-03-02T20:02:52.847Z,50.26
2018-03-02T20:05:20.504Z,50.50
2018-03-02T20:07:48.092Z,50.69
2018-03-02T20:10:15.790Z,50.57
2018-03-02T20:12:43.474Z,50.71
2018-03-02T20:15:11.109Z,50.86
2018-03-02T20:17:38.766Z,51.36
2018-03-02T20:20:06.488Z,51.54
2018-03-02T20:22:34.146Z,51.56
2018-03-02T20:25:01.740Z,51.56
2018-03-02T20:27:29.671Z,51.68
2018-03-02T20:29:57.280Z,52.21
2018-03-02T20:32:24.889Z,52.15
2018-03-02T20:34:52.852Z,52.13
2018-03-02T20:37:20.531Z,52.43
2018-03-02T20:39:48.195Z,52.55
2018-03-02T20:42:15.791Z,52.54
2018-03-02T20:44:43.396Z,52.59
2018-03-02T20:47:10.974Z,52.74
2018-03-02T20:49:38.834Z,52.96
2018-03-02T20:52:06.426Z,53.03
2018-03-02T20:54:34.036Z,53.25
2018-03-02T20:57:01.637Z,53.35
2018-03-02T20:59:29.265Z,53.19
2018-03-02T21:01:57.089Z,53.34
2018-03-02T21:04:24.681Z,53.53
2018-03-02T21:06:52.506Z,53.47
2018-03-02T21:09:20.138Z,53.32
2018-03-02T21:11:47.997Z,53.49
2018-03-02T21:14:15.613Z,53.69
2018-03-02T21:16:43.187Z,53.84
2018-03-02T21:19:10.787Z,54.10
2018-03-02T21:21:38.668Z,54.38
2018-03-02T21:24:06.254Z,54.27
2018-03-02T21:26:33.831Z,54.33
2018-03-02T21:29:01.849Z,54.57
2018-03-02T21:31:29.477Z,54.41
2018-03-02T21:33:57.068Z,54.32
2018-03-02T21:36:24.727Z,54.54
2018-03-02T21:38:52.598Z,54.53
2018-03-02T21:41:20.182Z,54.39
2018-03-02T21:43:47.827Z,54.63
2018-03-02T21:46:15.402Z,54.65
2018-03-02T21:48:43.040Z,54.83
2018-03-02T21:51:10.693Z,54.80
2018-03-02T21:53:38.263Z,54.80
2018-03-02T21:56:05.962Z,54.74
2018-03-02T21:58:33.642Z,54.94
2018-03-02T22:01:01.552Z,55.10
2018-03-02T22:03:29.207Z,55.16
2018-03-02T22:05:57.023Z,55.35
2018-03-02T22:08:24.714Z,54.78
2018-03-02T22:10:52.611Z,55.10
2018-03-02T22:13:20.272Z,55.53
2018-03-02T22:15:47.894Z,55.42
2018-03-02T22:18:15.532Z,55.07
2018-03-02T22:20:43.125Z,55.42
2018-03-02T22:23:10.743Z,55.35
2018-03-02T22:25:38.400Z,55.49
2018-03-02T22:28:06.049Z,55.61
2018-03-02T22:30:33.608Z,55.46
2018-03-02T22:33:01.165Z,55.75
2018-03-02T22:35:28.777Z,55.85
2018-03-02T22:37:56.376Z,56.09
2018-03-02T22:40:24.022Z,55.92
2018-03-02T22:42:51.681Z,56.02
2018-03-02T22:45:19.242Z,56.19
2018-03-02T22:47:46.811Z,56.31
2018-03-02T22:50:14.716Z,56.54
2018-03-02T22:52:42.302Z,56.33
2018-03-02T22:55:09.900Z,56.24
2018-03-02T22:57:37.495Z,56.46
2018-03-02T23:00:05.175Z,56.38
2018-03-02T23:02:32.796Z,56.13
2018-03-02T23:05:00.463Z,56.26
2018-03-02T23:07:28.045Z,56.31
2018-03-02T23:09:55.692Z,56.53
2018-03-02T23:12:23.322Z,56.71
2018-03-02T23:14:57.625Z,56.45
2018-03-02T23:17:25.242Z,56.52
2018-03-02T23:19:52.843Z,56.66
2018-03-02T23:22:21.231Z,56.68
2018-03-02T23:24:49.369Z,56.62
2018-03-02T23:27:17.584Z,56.86
2018-03-02T23:29:45.695Z,57.10
2018-03-02T23:32:13.680Z,57.17
2018-03-02T23:34:41.786Z,57.13
2018-03-02T23:37:09.887Z,57.30
2018-03-02T23:39:37.744Z,57.20
2018-03-02T23:42:05.345Z,57.42
2018-03-02T23:44:32.995Z,57.03
2018-03-02T23:47:00.563Z,57.22
2018-03-02T23:49:28.134Z,57.13
2018-03-02T23:51:55.732Z,57.34
2018-03-02T23:54:23.558Z,57.42
2018-03-02T23:56:51.134Z,57.61
2018-03-02T23:59:18.725Z,57.80
